sensor_id;sensor_type;location;lat;lon;timestamp;P1;durP1;ratioP1;P2;durP2;ratioP2
42244;SDS011;27912;51.828;5.688;2023-05-07T00:01:05;10.55;;;7.43;;
42244;SDS011;27912;51.828;5.688;2023-05-07T00:03:31;10.85;;;6.75;;
42244;SDS011;27912;51.828;5.688;2023-05-07T00:05:57;8.50;;;6.68;;
42244;SDS011;27912;51.828;5.688;2023-05-07T00:08:23;9.25;;;7.00;;
42244;SDS011;27912;51.828;5.688;2023-05-07T00:10:48;10.05;;;6.65;;
42244;SDS011;27912;51.828;5.688;2023-05-07T00:13:14;8.55;;;6.60;;
42244;SDS011;27912;51.828;5.688;2023-05-07T00:15:40;9.05;;;7.13;;
42244;SDS011;27912;51.828;5.688;2023-05-07T00:18:05;9.32;;;7.30;;
42244;SDS011;27912;51.828;5.688;2023-05-07T00:20:31;8.82;;;6.50;;
42244;SDS011;27912;51.828;5.688;2023-05-07T00:22:56;8.45;;;6.65;;
42244;SDS011;27912;51.828;5.688;2023-05-07T00:25:22;9.00;;;7.03;;
42244;SDS011;27912;51.828;5.688;2023-05-07T00:27:48;11.05;;;6.55;;
42244;SDS011;27912;51.828;5.688;2023-05-07T00:30:13;14.70;;;7.97;;
42244;SDS011;27912;51.828;5.688;2023-05-07T00:32:39;7.93;;;5.72;;
42244;SDS011;27912;51.828;5.688;2023-05-07T00:35:05;10.32;;;6.60;;
42244;SDS011;27912;51.828;5.688;2023-05-07T00:37:32;12.80;;;7.47;;
42244;SDS011;27912;51.828;5.688;2023-05-07T00:39:58;9.63;;;7.20;;
42244;SDS011;27912;51.828;5.688;2023-05-07T00:42:24;8.35;;;6.28;;
42244;SDS011;27912;51.828;5.688;2023-05-07T00:44:49;7.38;;;5.88;;
42244;SDS011;27912;51.828;5.688;2023-05-07T00:47:16;9.55;;;6.55;;
42244;SDS011;27912;51.828;5.688;2023-05-07T00:49:42;7.75;;;6.60;;
42244;SDS011;27912;51.828;5.688;2023-05-07T00:52:10;11.38;;;6.47;;
42244;SDS011;27912;51.828;5.688;2023-05-07T00:54:38;8.75;;;6.07;;
42244;SDS011;27912;51.828;5.688;2023-05-07T00:57:05;11.50;;;7.22;;
42244;SDS011;27912;51.828;5.688;2023-05-07T00:59:31;9.35;;;6.60;;
42244;SDS011;27912;51.828;5.688;2023-05-07T01:01:58;11.18;;;6.97;;
42244;SDS011;27912;51.828;5.688;2023-05-07T01:04:24;9.52;;;6.70;;
42244;SDS011;27912;51.828;5.688;2023-05-07T01:06:50;8.63;;;6.80;;
42244;SDS011;27912;51.828;5.688;2023-05-07T01:09:17;11.18;;;7.18;;
42244;SDS011;27912;51.828;5.688;2023-05-07T01:11:44;6.22;;;5.63;;
42244;SDS011;27912;51.828;5.688;2023-05-07T01:14:14;7.18;;;4.93;;
42244;SDS011;27912;51.828;5.688;2023-05-07T01:16:39;4.10;;;3.78;;
42244;SDS011;27912;51.828;5.688;2023-05-07T01:19:06;9.38;;;6.38;;
42244;SDS011;27912;51.828;5.688;2023-05-07T01:21:33;7.95;;;6.80;;
42244;SDS011;27912;51.828;5.688;2023-05-07T01:24:02;11.02;;;8.32;;
42244;SDS011;27912;51.828;5.688;2023-05-07T01:26:27;13.07;;;7.70;;
42244;SDS011;27912;51.828;5.688;2023-05-07T01:28:53;13.32;;;8.98;;
42244;SDS011;27912;51.828;5.688;2023-05-07T01:31:18;14.75;;;8.07;;
42244;SDS011;27912;51.828;5.688;2023-05-07T01:33:44;14.93;;;8.35;;
42244;SDS011;27912;51.828;5.688;2023-05-07T01:36:13;10.77;;;7.68;;
42244;SDS011;27912;51.828;5.688;2023-05-07T01:38:40;11.15;;;7.32;;
42244;SDS011;27912;51.828;5.688;2023-05-07T01:41:06;10.63;;;7.78;;
42244;SDS011;27912;51.828;5.688;2023-05-07T01:43:32;11.18;;;8.45;;
42244;SDS011;27912;51.828;5.688;2023-05-07T01:45:58;11.13;;;7.38;;
42244;SDS011;27912;51.828;5.688;2023-05-07T01:48:26;10.10;;;7.65;;
42244;SDS011;27912;51.828;5.688;2023-05-07T01:50:52;8.23;;;6.15;;
42244;SDS011;27912;51.828;5.688;2023-05-07T01:53:17;11.95;;;8.40;;
42244;SDS011;27912;51.828;5.688;2023-05-07T01:55:43;9.98;;;7.68;;
42244;SDS011;27912;51.828;5.688;2023-05-07T01:58:08;11.15;;;8.30;;
42244;SDS011;27912;51.828;5.688;2023-05-07T02:00:34;14.45;;;8.93;;
42244;SDS011;27912;51.828;5.688;2023-05-07T02:03:01;14.13;;;8.63;;
42244;SDS011;27912;51.828;5.688;2023-05-07T02:05:26;12.40;;;9.52;;
42244;SDS011;27912;51.828;5.688;2023-05-07T02:07:52;15.13;;;10.57;;
42244;SDS011;27912;51.828;5.688;2023-05-07T02:10:17;12.98;;;9.15;;
42244;SDS011;27912;51.828;5.688;2023-05-07T02:12:43;12.73;;;8.75;;
42244;SDS011;27912;51.828;5.688;2023-05-07T02:15:09;9.30;;;7.07;;
42244;SDS011;27912;51.828;5.688;2023-05-07T02:17:35;12.48;;;8.50;;
42244;SDS011;27912;51.828;5.688;2023-05-07T02:20:03;11.88;;;8.00;;
42244;SDS011;27912;51.828;5.688;2023-05-07T02:22:29;11.10;;;9.20;;
42244;SDS011;27912;51.828;5.688;2023-05-07T02:24:55;14.15;;;9.70;;
42244;SDS011;27912;51.828;5.688;2023-05-07T02:27:20;13.30;;;9.52;;
42244;SDS011;27912;51.828;5.688;2023-05-07T02:29:46;9.27;;;8.27;;
42244;SDS011;27912;51.828;5.688;2023-05-07T02:32:11;13.00;;;10.48;;
42244;SDS011;27912;51.828;5.688;2023-05-07T02:34:37;16.10;;;10.02;;
42244;SDS011;27912;51.828;5.688;2023-05-07T02:37:02;13.50;;;11.18;;
42244;SDS011;27912;51.828;5.688;2023-05-07T02:39:28;15.15;;;10.93;;
42244;SDS011;27912;51.828;5.688;2023-05-07T02:41:53;11.10;;;9.15;;
42244;SDS011;27912;51.828;5.688;2023-05-07T02:44:19;12.82;;;9.40;;
42244;SDS011;27912;51.828;5.688;2023-05-07T02:46:45;15.63;;;11.65;;
42244;SDS011;27912;51.828;5.688;2023-05-07T02:49:10;13.85;;;11.23;;
42244;SDS011;27912;51.828;5.688;2023-05-07T02:51:36;14.77;;;10.93;;
42244;SDS011;27912;51.828;5.688;2023-05-07T02:54:01;14.40;;;10.70;;
42244;SDS011;27912;51.828;5.688;2023-05-07T02:56:27;10.82;;;9.40;;
42244;SDS011;27912;51.828;5.688;2023-05-07T02:58:52;14.63;;;10.23;;
42244;SDS011;27912;51.828;5.688;2023-05-07T03:01:18;15.30;;;10.98;;
42244;SDS011;27912;51.828;5.688;2023-05-07T03:03:43;15.77;;;11.57;;
42244;SDS011;27912;51.828;5.688;2023-05-07T03:06:09;15.05;;;12.80;;
42244;SDS011;27912;51.828;5.688;2023-05-07T03:08:35;20.30;;;15.57;;
42244;SDS011;27912;51.828;5.688;2023-05-07T03:11:01;18.80;;;15.15;;
42244;SDS011;27912;51.828;5.688;2023-05-07T03:13:27;15.98;;;12.32;;
42244;SDS011;27912;51.828;5.688;2023-05-07T03:15:52;19.48;;;15.25;;
42244;SDS011;27912;51.828;5.688;2023-05-07T03:18:18;21.60;;;17.58;;
42244;SDS011;27912;51.828;5.688;2023-05-07T03:20:43;16.65;;;13.40;;
42244;SDS011;27912;51.828;5.688;2023-05-07T03:23:09;18.23;;;13.50;;
42244;SDS011;27912;51.828;5.688;2023-05-07T03:25:35;20.52;;;14.50;;
42244;SDS011;27912;51.828;5.688;2023-05-07T03:28:00;21.45;;;16.42;;
42244;SDS011;27912;51.828;5.688;2023-05-07T03:30:26;25.38;;;19.23;;
42244;SDS011;27912;51.828;5.688;2023-05-07T03:32:51;25.15;;;21.27;;
42244;SDS011;27912;51.828;5.688;2023-05-07T03:35:17;28.35;;;23.13;;
42244;SDS011;27912;51.828;5.688;2023-05-07T03:37:42;28.75;;;23.33;;
42244;SDS011;27912;51.828;5.688;2023-05-07T03:40:08;27.42;;;21.42;;
42244;SDS011;27912;51.828;5.688;2023-05-07T03:42:35;29.27;;;22.75;;
42244;SDS011;27912;51.828;5.688;2023-05-07T03:45:00;27.10;;;22.63;;
42244;SDS011;27912;51.828;5.688;2023-05-07T03:47:26;27.50;;;22.48;;
42244;SDS011;27912;51.828;5.688;2023-05-07T03:49:52;32.33;;;27.10;;
42244;SDS011;27912;51.828;5.688;2023-05-07T03:52:18;31.40;;;24.88;;
42244;SDS011;27912;51.828;5.688;2023-05-07T03:54:48;36.33;;;27.50;;
42244;SDS011;27912;51.828;5.688;2023-05-07T03:57:14;40.53;;;27.75;;
42244;SDS011;27912;51.828;5.688;2023-05-07T03:59:40;35.03;;;29.63;;
42244;SDS011;27912;51.828;5.688;2023-05-07T04:02:05;33.33;;;28.30;;
42244;SDS011;27912;51.828;5.688;2023-05-07T04:04:31;34.35;;;27.80;;
42244;SDS011;27912;51.828;5.688;2023-05-07T04:06:57;38.97;;;30.70;;
42244;SDS011;27912;51.828;5.688;2023-05-07T04:09:24;39.72;;;32.58;;
42244;SDS011;27912;51.828;5.688;2023-05-07T04:11:50;37.20;;;28.75;;
42244;SDS011;27912;51.828;5.688;2023-05-07T04:14:15;40.47;;;31.85;;
42244;SDS011;27912;51.828;5.688;2023-05-07T04:16:41;36.80;;;30.67;;
42244;SDS011;27912;51.828;5.688;2023-05-07T04:19:06;38.40;;;31.55;;
42244;SDS011;27912;51.828;5.688;2023-05-07T04:21:32;38.47;;;31.35;;
42244;SDS011;27912;51.828;5.688;2023-05-07T04:23:58;39.00;;;30.85;;
42244;SDS011;27912;51.828;5.688;2023-05-07T04:26:23;39.80;;;31.90;;
42244;SDS011;27912;51.828;5.688;2023-05-07T04:28:49;37.10;;;30.77;;
42244;SDS011;27912;51.828;5.688;2023-05-07T04:31:14;39.83;;;30.63;;
42244;SDS011;27912;51.828;5.688;2023-05-07T04:33:40;38.15;;;30.80;;
42244;SDS011;27912;51.828;5.688;2023-05-07T04:36:06;38.72;;;30.33;;
42244;SDS011;27912;51.828;5.688;2023-05-07T04:38:32;37.53;;;30.38;;
42244;SDS011;27912;51.828;5.688;2023-05-07T04:41:02;35.22;;;28.80;;
42244;SDS011;27912;51.828;5.688;2023-05-07T04:43:29;35.25;;;28.83;;
42244;SDS011;27912;51.828;5.688;2023-05-07T04:45:54;34.05;;;27.88;;
42244;SDS011;27912;51.828;5.688;2023-05-07T04:48:20;36.45;;;29.30;;
42244;SDS011;27912;51.828;5.688;2023-05-07T04:50:49;37.60;;;28.48;;
42244;SDS011;27912;51.828;5.688;2023-05-07T04:53:14;38.72;;;30.42;;
42244;SDS011;27912;51.828;5.688;2023-05-07T04:55:40;39.42;;;31.02;;
42244;SDS011;27912;51.828;5.688;2023-05-07T04:58:06;36.58;;;29.38;;
42244;SDS011;27912;51.828;5.688;2023-05-07T05:00:32;41.58;;;29.75;;
42244;SDS011;27912;51.828;5.688;2023-05-07T05:02:58;37.55;;;30.67;;
42244;SDS011;27912;51.828;5.688;2023-05-07T05:05:24;34.97;;;27.83;;
42244;SDS011;27912;51.828;5.688;2023-05-07T05:07:49;37.75;;;28.77;;
42244;SDS011;27912;51.828;5.688;2023-05-07T05:10:16;35.97;;;29.33;;
42244;SDS011;27912;51.828;5.688;2023-05-07T05:12:42;37.17;;;29.05;;
42244;SDS011;27912;51.828;5.688;2023-05-07T05:15:08;35.03;;;28.02;;
42244;SDS011;27912;51.828;5.688;2023-05-07T05:17:35;38.83;;;29.75;;
42244;SDS011;27912;51.828;5.688;2023-05-07T05:20:01;36.75;;;29.67;;
42244;SDS011;27912;51.828;5.688;2023-05-07T05:22:27;39.72;;;28.88;;
42244;SDS011;27912;51.828;5.688;2023-05-07T05:24:54;33.28;;;27.42;;
42244;SDS011;27912;51.828;5.688;2023-05-07T05:27:20;33.28;;;27.70;;
42244;SDS011;27912;51.828;5.688;2023-05-07T05:29:45;30.05;;;26.25;;
42244;SDS011;27912;51.828;5.688;2023-05-07T05:32:11;32.95;;;27.90;;
42244;SDS011;27912;51.828;5.688;2023-05-07T05:34:37;33.08;;;27.27;;
42244;SDS011;27912;51.828;5.688;2023-05-07T05:37:03;32.38;;;27.25;;
42244;SDS011;27912;51.828;5.688;2023-05-07T05:39:28;32.75;;;27.23;;
42244;SDS011;27912;51.828;5.688;2023-05-07T05:41:54;34.45;;;27.98;;
42244;SDS011;27912;51.828;5.688;2023-05-07T05:44:19;34.05;;;27.45;;
42244;SDS011;27912;51.828;5.688;2023-05-07T05:46:45;29.88;;;24.50;;
42244;SDS011;27912;51.828;5.688;2023-05-07T05:49:11;31.67;;;27.38;;
42244;SDS011;27912;51.828;5.688;2023-05-07T05:51:36;33.60;;;27.60;;
42244;SDS011;27912;51.828;5.688;2023-05-07T05:54:02;33.45;;;27.15;;
42244;SDS011;27912;51.828;5.688;2023-05-07T05:56:27;32.45;;;27.60;;
42244;SDS011;27912;51.828;5.688;2023-05-07T05:58:53;35.20;;;27.67;;
42244;SDS011;27912;51.828;5.688;2023-05-07T06:01:18;36.58;;;26.52;;
42244;SDS011;27912;51.828;5.688;2023-05-07T06:03:44;32.13;;;27.42;;
42244;SDS011;27912;51.828;5.688;2023-05-07T06:06:12;34.72;;;27.55;;
42244;SDS011;27912;51.828;5.688;2023-05-07T06:08:39;32.30;;;26.88;;
42244;SDS011;27912;51.828;5.688;2023-05-07T06:11:05;31.27;;;26.63;;
42244;SDS011;27912;51.828;5.688;2023-05-07T06:13:30;30.30;;;26.33;;
42244;SDS011;27912;51.828;5.688;2023-05-07T06:15:56;33.20;;;26.13;;
42244;SDS011;27912;51.828;5.688;2023-05-07T06:18:21;31.63;;;24.92;;
42244;SDS011;27912;51.828;5.688;2023-05-07T06:20:47;31.50;;;26.95;;
42244;SDS011;27912;51.828;5.688;2023-05-07T06:23:13;28.60;;;24.70;;
42244;SDS011;27912;51.828;5.688;2023-05-07T06:25:39;32.08;;;24.73;;
42244;SDS011;27912;51.828;5.688;2023-05-07T06:28:05;31.48;;;25.23;;
42244;SDS011;27912;51.828;5.688;2023-05-07T06:30:31;29.67;;;26.10;;
42244;SDS011;27912;51.828;5.688;2023-05-07T06:32:57;32.63;;;25.75;;
42244;SDS011;27912;51.828;5.688;2023-05-07T06:35:23;29.98;;;25.75;;
42244;SDS011;27912;51.828;5.688;2023-05-07T06:37:49;32.08;;;24.88;;
42244;SDS011;27912;51.828;5.688;2023-05-07T06:40:14;31.10;;;25.23;;
42244;SDS011;27912;51.828;5.688;2023-05-07T06:42:40;28.70;;;24.73;;
42244;SDS011;27912;51.828;5.688;2023-05-07T06:45:06;29.95;;;24.50;;
42244;SDS011;27912;51.828;5.688;2023-05-07T06:47:33;29.23;;;23.70;;
42244;SDS011;27912;51.828;5.688;2023-05-07T06:49:59;29.08;;;23.23;;
42244;SDS011;27912;51.828;5.688;2023-05-07T06:52:25;26.90;;;22.90;;
42244;SDS011;27912;51.828;5.688;2023-05-07T06:54:51;29.58;;;24.48;;
42244;SDS011;27912;51.828;5.688;2023-05-07T06:57:16;28.83;;;23.90;;
42244;SDS011;27912;51.828;5.688;2023-05-07T06:59:42;29.05;;;23.63;;
42244;SDS011;27912;51.828;5.688;2023-05-07T07:02:07;28.90;;;24.13;;
42244;SDS011;27912;51.828;5.688;2023-05-07T07:04:33;32.95;;;25.40;;
42244;SDS011;27912;51.828;5.688;2023-05-07T07:06:59;30.23;;;25.27;;
42244;SDS011;27912;51.828;5.688;2023-05-07T07:09:25;28.50;;;23.92;;
42244;SDS011;27912;51.828;5.688;2023-05-07T07:11:50;33.22;;;24.67;;
42244;SDS011;27912;51.828;5.688;2023-05-07T07:14:16;26.30;;;23.23;;
42244;SDS011;27912;51.828;5.688;2023-05-07T07:16:41;30.92;;;23.83;;
42244;SDS011;27912;51.828;5.688;2023-05-07T07:19:07;27.00;;;23.25;;
42244;SDS011;27912;51.828;5.688;2023-05-07T07:21:33;27.48;;;24.27;;
42244;SDS011;27912;51.828;5.688;2023-05-07T07:23:58;28.27;;;23.55;;
42244;SDS011;27912;51.828;5.688;2023-05-07T07:26:24;27.42;;;23.70;;
42244;SDS011;27912;51.828;5.688;2023-05-07T07:28:49;29.23;;;23.27;;
42244;SDS011;27912;51.828;5.688;2023-05-07T07:31:15;27.48;;;22.23;;
42244;SDS011;27912;51.828;5.688;2023-05-07T07:33:41;28.70;;;23.77;;
42244;SDS011;27912;51.828;5.688;2023-05-07T07:36:07;29.05;;;22.92;;
42244;SDS011;27912;51.828;5.688;2023-05-07T07:38:33;26.98;;;22.27;;
42244;SDS011;27912;51.828;5.688;2023-05-07T07:40:59;28.30;;;22.75;;
42244;SDS011;27912;51.828;5.688;2023-05-07T07:43:25;28.85;;;22.95;;
42244;SDS011;27912;51.828;5.688;2023-05-07T07:45:51;21.02;;;17.83;;
42244;SDS011;27912;51.828;5.688;2023-05-07T07:48:16;28.60;;;21.58;;
42244;SDS011;27912;51.828;5.688;2023-05-07T07:50:42;30.25;;;23.45;;
42244;SDS011;27912;51.828;5.688;2023-05-07T07:53:08;26.15;;;22.23;;
42244;SDS011;27912;51.828;5.688;2023-05-07T07:55:37;31.00;;;21.35;;
42244;SDS011;27912;51.828;5.688;2023-05-07T07:58:04;29.88;;;23.60;;
42244;SDS011;27912;51.828;5.688;2023-05-07T08:00:30;29.92;;;21.90;;
42244;SDS011;27912;51.828;5.688;2023-05-07T08:02:55;24.65;;;20.90;;
42244;SDS011;27912;51.828;5.688;2023-05-07T08:05:21;24.33;;;20.88;;
42244;SDS011;27912;51.828;5.688;2023-05-07T08:07:47;28.38;;;21.58;;
42244;SDS011;27912;51.828;5.688;2023-05-07T08:10:16;27.25;;;21.55;;
42244;SDS011;27912;51.828;5.688;2023-05-07T08:12:46;22.08;;;19.42;;
42244;SDS011;27912;51.828;5.688;2023-05-07T08:15:12;24.58;;;18.70;;
42244;SDS011;27912;51.828;5.688;2023-05-07T08:17:38;24.80;;;19.77;;
42244;SDS011;27912;51.828;5.688;2023-05-07T08:20:04;22.25;;;19.48;;
42244;SDS011;27912;51.828;5.688;2023-05-07T08:22:30;21.60;;;17.63;;
42244;SDS011;27912;51.828;5.688;2023-05-07T08:24:55;23.35;;;18.52;;
42244;SDS011;27912;51.828;5.688;2023-05-07T08:27:21;20.10;;;17.65;;
42244;SDS011;27912;51.828;5.688;2023-05-07T08:29:47;22.88;;;18.60;;
42244;SDS011;27912;51.828;5.688;2023-05-07T08:32:13;20.27;;;18.17;;
42244;SDS011;27912;51.828;5.688;2023-05-07T08:34:39;19.70;;;16.83;;
42244;SDS011;27912;51.828;5.688;2023-05-07T08:37:05;19.63;;;17.30;;
42244;SDS011;27912;51.828;5.688;2023-05-07T08:39:31;21.05;;;17.88;;
42244;SDS011;27912;51.828;5.688;2023-05-07T08:41:56;19.90;;;17.30;;
42244;SDS011;27912;51.828;5.688;2023-05-07T08:44:27;17.98;;;15.38;;
42244;SDS011;27912;51.828;5.688;2023-05-07T08:46:57;17.02;;;14.95;;
42244;SDS011;27912;51.828;5.688;2023-05-07T08:49:25;19.27;;;16.20;;
42244;SDS011;27912;51.828;5.688;2023-05-07T08:51:51;17.30;;;15.40;;
42244;SDS011;27912;51.828;5.688;2023-05-07T08:54:17;17.98;;;14.98;;
42244;SDS011;27912;51.828;5.688;2023-05-07T08:56:44;16.85;;;15.05;;
42244;SDS011;27912;51.828;5.688;2023-05-07T08:59:10;17.38;;;14.75;;
42244;SDS011;27912;51.828;5.688;2023-05-07T09:01:35;17.38;;;14.10;;
42244;SDS011;27912;51.828;5.688;2023-05-07T09:04:01;15.07;;;13.57;;
42244;SDS011;27912;51.828;5.688;2023-05-07T09:06:27;15.93;;;13.73;;
42244;SDS011;27912;51.828;5.688;2023-05-07T09:08:53;15.60;;;13.63;;
42244;SDS011;27912;51.828;5.688;2023-05-07T09:11:20;15.88;;;14.05;;
42244;SDS011;27912;51.828;5.688;2023-05-07T09:13:47;16.30;;;13.48;;
42244;SDS011;27912;51.828;5.688;2023-05-07T09:16:14;15.90;;;14.30;;
42244;SDS011;27912;51.828;5.688;2023-05-07T09:18:43;16.02;;;13.05;;
42244;SDS011;27912;51.828;5.688;2023-05-07T09:21:10;14.80;;;11.98;;
42244;SDS011;27912;51.828;5.688;2023-05-07T09:23:37;14.25;;;12.85;;
42244;SDS011;27912;51.828;5.688;2023-05-07T09:26:02;13.32;;;11.93;;
42244;SDS011;27912;51.828;5.688;2023-05-07T09:28:29;13.52;;;12.07;;
42244;SDS011;27912;51.828;5.688;2023-05-07T09:30:54;14.15;;;12.60;;
42244;SDS011;27912;51.828;5.688;2023-05-07T09:33:20;14.18;;;12.00;;
42244;SDS011;27912;51.828;5.688;2023-05-07T09:35:46;16.55;;;12.93;;
42244;SDS011;27912;51.828;5.688;2023-05-07T09:38:16;13.75;;;12.35;;
42244;SDS011;27912;51.828;5.688;2023-05-07T09:40:44;15.10;;;12.18;;
42244;SDS011;27912;51.828;5.688;2023-05-07T09:43:10;13.85;;;11.38;;
42244;SDS011;27912;51.828;5.688;2023-05-07T09:45:37;16.92;;;11.80;;
42244;SDS011;27912;51.828;5.688;2023-05-07T09:48:04;14.38;;;11.88;;
42244;SDS011;27912;51.828;5.688;2023-05-07T09:50:40;12.52;;;11.00;;
42244;SDS011;27912;51.828;5.688;2023-05-07T09:53:14;13.13;;;10.15;;
42244;SDS011;27912;51.828;5.688;2023-05-07T09:55:41;15.15;;;11.40;;
42244;SDS011;27912;51.828;5.688;2023-05-07T09:58:08;12.57;;;10.32;;
42244;SDS011;27912;51.828;5.688;2023-05-07T10:00:36;13.43;;;10.07;;
42244;SDS011;27912;51.828;5.688;2023-05-07T10:03:05;13.20;;;10.35;;
42244;SDS011;27912;51.828;5.688;2023-05-07T10:05:31;11.70;;;9.88;;
42244;SDS011;27912;51.828;5.688;2023-05-07T10:07:57;14.65;;;10.55;;
42244;SDS011;27912;51.828;5.688;2023-05-07T10:10:23;11.07;;;9.23;;
42244;SDS011;27912;51.828;5.688;2023-05-07T10:12:49;12.90;;;10.30;;
42244;SDS011;27912;51.828;5.688;2023-05-07T10:15:15;13.00;;;9.90;;
42244;SDS011;27912;51.828;5.688;2023-05-07T10:17:42;15.45;;;10.60;;
42244;SDS011;27912;51.828;5.688;2023-05-07T10:32:51;10.13;;;8.00;;
42244;SDS011;27912;51.828;5.688;2023-05-07T10:35:31;9.80;;;8.15;;
42244;SDS011;27912;51.828;5.688;2023-05-07T10:38:00;9.70;;;8.27;;
42244;SDS011;27912;51.828;5.688;2023-05-07T10:40:26;9.75;;;8.38;;
42244;SDS011;27912;51.828;5.688;2023-05-07T10:43:02;9.07;;;8.15;;
42244;SDS011;27912;51.828;5.688;2023-05-07T10:45:32;10.18;;;8.38;;
42244;SDS011;27912;51.828;5.688;2023-05-07T10:50:39;11.00;;;8.63;;
42244;SDS011;27912;51.828;5.688;2023-05-07T10:55:50;11.52;;;9.25;;
42244;SDS011;27912;51.828;5.688;2023-05-07T10:58:29;9.98;;;7.38;;
42244;SDS011;27912;51.828;5.688;2023-05-07T11:03:21;10.70;;;7.68;;
42244;SDS011;27912;51.828;5.688;2023-05-07T11:05:47;8.82;;;7.90;;
42244;SDS011;27912;51.828;5.688;2023-05-07T11:11:17;9.75;;;7.15;;
42244;SDS011;27912;51.828;5.688;2023-05-07T11:13:48;9.98;;;7.47;;
42244;SDS011;27912;51.828;5.688;2023-05-07T11:16:19;10.30;;;8.57;;
42244;SDS011;27912;51.828;5.688;2023-05-07T11:18:50;12.02;;;9.15;;
42244;SDS011;27912;51.828;5.688;2023-05-07T11:21:33;12.02;;;9.07;;
42244;SDS011;27912;51.828;5.688;2023-05-07T11:24:02;9.93;;;8.15;;
42244;SDS011;27912;51.828;5.688;2023-05-07T11:26:41;11.30;;;7.72;;
42244;SDS011;27912;51.828;5.688;2023-05-07T11:29:15;10.57;;;7.80;;
42244;SDS011;27912;51.828;5.688;2023-05-07T11:31:42;11.82;;;8.30;;
42244;SDS011;27912;51.828;5.688;2023-05-07T11:34:08;9.40;;;7.57;;
42244;SDS011;27912;51.828;5.688;2023-05-07T11:36:34;10.43;;;8.13;;
42244;SDS011;27912;51.828;5.688;2023-05-07T11:39:05;10.50;;;8.27;;
42244;SDS011;27912;51.828;5.688;2023-05-07T11:41:47;8.93;;;7.10;;
42244;SDS011;27912;51.828;5.688;2023-05-07T11:44:13;9.30;;;7.18;;
42244;SDS011;27912;51.828;5.688;2023-05-07T11:46:42;9.60;;;7.47;;
42244;SDS011;27912;51.828;5.688;2023-05-07T11:49:08;10.00;;;7.07;;
42244;SDS011;27912;51.828;5.688;2023-05-07T11:51:34;7.85;;;6.15;;
42244;SDS011;27912;51.828;5.688;2023-05-07T11:54:00;10.07;;;7.20;;
42244;SDS011;27912;51.828;5.688;2023-05-07T11:56:28;8.18;;;6.80;;
42244;SDS011;27912;51.828;5.688;2023-05-07T11:58:53;9.52;;;7.03;;
42244;SDS011;27912;51.828;5.688;2023-05-07T12:01:19;8.75;;;7.85;;
42244;SDS011;27912;51.828;5.688;2023-05-07T12:03:45;11.07;;;7.82;;
42244;SDS011;27912;51.828;5.688;2023-05-07T12:06:11;9.93;;;7.85;;
42244;SDS011;27912;51.828;5.688;2023-05-07T12:08:38;9.02;;;7.53;;
42244;SDS011;27912;51.828;5.688;2023-05-07T12:11:09;10.05;;;7.53;;
42244;SDS011;27912;51.828;5.688;2023-05-07T12:13:37;8.63;;;6.63;;
42244;SDS011;27912;51.828;5.688;2023-05-07T12:16:03;9.43;;;8.43;;
42244;SDS011;27912;51.828;5.688;2023-05-07T12:18:30;11.90;;;6.93;;
42244;SDS011;27912;51.828;5.688;2023-05-07T12:20:56;9.77;;;7.35;;
42244;SDS011;27912;51.828;5.688;2023-05-07T12:23:22;10.43;;;6.80;;
42244;SDS011;27912;51.828;5.688;2023-05-07T12:25:48;7.68;;;6.30;;
42244;SDS011;27912;51.828;5.688;2023-05-07T12:28:17;8.38;;;6.45;;
42244;SDS011;27912;51.828;5.688;2023-05-07T12:30:44;8.10;;;6.65;;
42244;SDS011;27912;51.828;5.688;2023-05-07T12:33:11;8.23;;;6.68;;
42244;SDS011;27912;51.828;5.688;2023-05-07T12:35:41;6.18;;;5.50;;
42244;SDS011;27912;51.828;5.688;2023-05-07T12:38:07;10.18;;;6.28;;
42244;SDS011;27912;51.828;5.688;2023-05-07T12:43:03;8.48;;;6.05;;
42244;SDS011;27912;51.828;5.688;2023-05-07T12:45:28;7.78;;;6.20;;
42244;SDS011;27912;51.828;5.688;2023-05-07T12:47:54;8.75;;;6.20;;
42244;SDS011;27912;51.828;5.688;2023-05-07T12:50:19;8.13;;;6.40;;
42244;SDS011;27912;51.828;5.688;2023-05-07T12:52:48;10.70;;;7.15;;
42244;SDS011;27912;51.828;5.688;2023-05-07T12:55:14;7.20;;;6.22;;
42244;SDS011;27912;51.828;5.688;2023-05-07T12:57:45;9.38;;;6.35;;
42244;SDS011;27912;51.828;5.688;2023-05-07T13:00:14;9.75;;;7.10;;
42244;SDS011;27912;51.828;5.688;2023-05-07T13:02:40;9.50;;;7.07;;
42244;SDS011;27912;51.828;5.688;2023-05-07T13:05:07;11.98;;;8.55;;
42244;SDS011;27912;51.828;5.688;2023-05-07T13:07:33;11.35;;;8.32;;
42244;SDS011;27912;51.828;5.688;2023-05-07T13:09:59;8.98;;;7.93;;
42244;SDS011;27912;51.828;5.688;2023-05-07T13:12:24;9.70;;;8.13;;
42244;SDS011;27912;51.828;5.688;2023-05-07T13:14:50;14.25;;;9.05;;
42244;SDS011;27912;51.828;5.688;2023-05-07T13:17:16;9.23;;;8.23;;
42244;SDS011;27912;51.828;5.688;2023-05-07T13:19:41;15.32;;;10.40;;
42244;SDS011;27912;51.828;5.688;2023-05-07T13:22:07;12.05;;;10.77;;
42244;SDS011;27912;51.828;5.688;2023-05-07T13:24:32;14.27;;;11.68;;
42244;SDS011;27912;51.828;5.688;2023-05-07T13:26:58;15.30;;;11.18;;
42244;SDS011;27912;51.828;5.688;2023-05-07T13:29:23;14.60;;;11.50;;
42244;SDS011;27912;51.828;5.688;2023-05-07T13:31:55;14.40;;;12.30;;
42244;SDS011;27912;51.828;5.688;2023-05-07T13:34:23;13.77;;;11.48;;
42244;SDS011;27912;51.828;5.688;2023-05-07T13:36:49;14.75;;;12.98;;
42244;SDS011;27912;51.828;5.688;2023-05-07T13:39:15;17.15;;;12.70;;
42244;SDS011;27912;51.828;5.688;2023-05-07T13:41:40;14.68;;;12.82;;
42244;SDS011;27912;51.828;5.688;2023-05-07T13:44:06;15.05;;;12.68;;
42244;SDS011;27912;51.828;5.688;2023-05-07T13:46:32;15.32;;;11.85;;
42244;SDS011;27912;51.828;5.688;2023-05-07T13:48:57;16.08;;;12.05;;
42244;SDS011;27912;51.828;5.688;2023-05-07T13:51:23;12.75;;;11.45;;
42244;SDS011;27912;51.828;5.688;2023-05-07T13:53:48;13.35;;;11.82;;
42244;SDS011;27912;51.828;5.688;2023-05-07T13:56:14;14.85;;;12.73;;
42244;SDS011;27912;51.828;5.688;2023-05-07T13:58:40;12.35;;;10.63;;
42244;SDS011;27912;51.828;5.688;2023-05-07T14:01:05;16.58;;;11.63;;
42244;SDS011;27912;51.828;5.688;2023-05-07T14:03:31;13.80;;;12.38;;
42244;SDS011;27912;51.828;5.688;2023-05-07T14:05:58;12.15;;;10.90;;
42244;SDS011;27912;51.828;5.688;2023-05-07T14:08:26;12.88;;;11.55;;
42244;SDS011;27912;51.828;5.688;2023-05-07T14:10:52;12.55;;;11.07;;
42244;SDS011;27912;51.828;5.688;2023-05-07T14:13:17;13.10;;;10.40;;
42244;SDS011;27912;51.828;5.688;2023-05-07T14:15:43;12.60;;;10.82;;
42244;SDS011;27912;51.828;5.688;2023-05-07T14:18:11;13.85;;;10.52;;
42244;SDS011;27912;51.828;5.688;2023-05-07T14:20:43;10.98;;;9.60;;
42244;SDS011;27912;51.828;5.688;2023-05-07T14:23:10;11.68;;;9.13;;
42244;SDS011;27912;51.828;5.688;2023-05-07T14:25:36;13.05;;;10.15;;
42244;SDS011;27912;51.828;5.688;2023-05-07T14:28:01;4.47;;;3.30;;
42244;SDS011;27912;51.828;5.688;2023-05-07T14:30:27;1.60;;;0.60;;
42244;SDS011;27912;51.828;5.688;2023-05-07T14:32:52;1.30;;;0.30;;
42244;SDS011;27912;51.828;5.688;2023-05-07T14:35:18;0.93;;;0.30;;
42244;SDS011;27912;51.828;5.688;2023-05-07T14:37:43;1.52;;;0.30;;
42244;SDS011;27912;51.828;5.688;2023-05-07T14:40:09;0.50;;;0.20;;
42244;SDS011;27912;51.828;5.688;2023-05-07T14:42:35;0.60;;;0.22;;
42244;SDS011;27912;51.828;5.688;2023-05-07T14:45:01;1.20;;;0.38;;
42244;SDS011;27912;51.828;5.688;2023-05-07T14:47:27;0.73;;;0.30;;
42244;SDS011;27912;51.828;5.688;2023-05-07T14:49:52;2.00;;;0.30;;